Terminal Aerodrome Forecast
Issued by NWS

Home | Current Version | Previous Version | Graphics & Text | Print | Product List | Glossary On
Versions: 1 2 3 4 5 6 7 8 9 10 11 12 13 14 15 16 17 18 19 20 21 22 23 24
000
FTUS43 KGRB 181000 AAA
TAFCWA
TAF AMD
KCWA 181011Z 1810/1906 09006KT P6SM OVC007
     FM181600 11006KT P6SM BKN015
     FM181800 12005KT P6SM SCT030 BKN050
     FM182300 14003KT P6SM SCT050 SCT090
      AMD LTD TO CLD VIS AND WIND TIL 181200=

USA.gov is the U.S. government's official web portal to all federal, state and local government web resources and services.